Time;durP1;ratioP1;P1;durP2;ratioP2;P2;SDS_P1;SDS_P2;PMS_P1;PMS_P2;Temp;Humidity;BMP_temperature;BMP_pressure;BME280_temperature;BME280_humidity;BME280_pressure;Samples;Min_cycle;Max_cycle;Signal;HPM_P1;HPM_P2
2023/01/24 05:02:46;;;;;;;;;48.50;37.25;;;;;;;;6372563;22;45311;-60
2023/01/24 05:05:11;;;;;;;;;51.25;38.75;;;;;;;;6402385;22;45177;-64
2023/01/24 05:07:36;;;;;;;;;40.50;33.50;;;;;;;;6398835;22;45215;-62
2023/01/24 05:10:01;;;;;;;;;43.75;37.25;;;;;;;;6403345;22;46045;-63
2023/01/24 05:12:27;;;;;;;;;48.00;40.00;;;;;;;;6402376;22;45390;-63
2023/01/24 05:14:52;;;;;;;;;56.25;40.00;;;;;;;;6401373;22;45397;-63
2023/01/24 05:17:17;;;;;;;;;51.75;38.00;;;;;;;;6402154;22;45638;-64
2023/01/24 05:19:42;;;;;;;;;49.25;38.00;;;;;;;;6402655;22;46157;-64
2023/01/24 05:22:07;;;;;;;;;54.75;40.00;;;;;;;;6400973;22;45347;-63
2023/01/24 05:24:32;;;;;;;;;52.25;41.00;;;;;;;;6401288;22;45836;-64
2023/01/24 05:26:58;;;;;;;;;47.50;36.75;;;;;;;;6400900;22;45634;-64
2023/01/24 05:29:23;;;;;;;;;47.00;37.50;;;;;;;;6400473;22;45929;-64
2023/01/24 05:31:48;;;;;;;;;44.50;34.75;;;;;;;;6401319;22;45334;-64
2023/01/24 05:34:13;;;;;;;;;55.00;41.00;;;;;;;;6401486;22;45601;-64
2023/01/24 05:36:38;;;;;;;;;55.50;40.50;;;;;;;;6401134;22;45649;-64
2023/01/24 05:39:04;;;;;;;;;49.25;40.00;;;;;;;;6402665;22;46101;-64
2023/01/24 05:41:29;;;;;;;;;52.75;40.00;;;;;;;;6403414;22;45344;-63
2023/01/24 05:43:55;;;;;;;;;53.75;41.75;;;;;;;;6402836;22;45339;-63
2023/01/24 05:46:21;;;;;;;;;55.50;42.25;;;;;;;;6374810;22;45323;-63
2023/01/24 05:48:47;;;;;;;;;58.75;42.50;;;;;;;;6374959;22;47134;-64
2023/01/24 05:51:15;;;;;;;;;49.25;37.25;;;;;;;;6403226;22;45199;-63
2023/01/24 05:53:40;;;;;;;;;63.50;43.25;;;;;;;;6402521;22;45404;-63
2023/01/24 05:56:07;;;;;;;;;57.25;43.50;;;;;;;;6402994;22;45293;-64
2023/01/24 05:58:34;;;;;;;;;48.25;39.75;;;;;;;;6402946;22;46225;-64
2023/01/24 06:00:59;;;;;;;;;57.25;42.50;;;;;;;;6374060;22;45400;-64
2023/01/24 06:03:24;;;;;;;;;53.50;38.50;;;;;;;;6402532;22;45313;-63
2023/01/24 06:05:51;;;;;;;;;44.00;41.00;;;;;;;;6399763;22;45427;-63
2023/01/24 06:08:16;;;;;;;;;51.50;38.25;;;;;;;;6403400;22;45324;-63
2023/01/24 06:10:42;;;;;;;;;67.50;45.00;;;;;;;;6402833;22;45618;-63
2023/01/24 06:13:07;;;;;;;;;53.75;38.50;;;;;;;;6403078;22;45424;-63
2023/01/24 06:15:32;;;;;;;;;59.75;42.25;;;;;;;;6374595;22;45321;-63
2023/01/24 06:17:57;;;;;;;;;57.25;43.25;;;;;;;;6402744;22;45296;-63
2023/01/24 06:20:23;;;;;;;;;57.75;42.75;;;;;;;;6400001;22;45472;-63
2023/01/24 06:22:51;;;;;;;;;51.25;39.50;;;;;;;;6403701;22;45259;-63
2023/01/24 06:25:20;;;;;;;;;42.50;35.75;;;;;;;;6403486;22;45351;-63
2023/01/24 06:27:45;;;;;;;;;47.75;37.50;;;;;;;;6374662;22;46120;-63
2023/01/24 06:30:12;;;;;;;;;53.50;38.75;;;;;;;;6401962;22;45299;-63
2023/01/24 06:33:02;;;;;;;;;56.25;42.00;;;;;;;;6402676;22;45168;-63
2023/01/24 06:35:35;;;;;;;;;45.00;36.25;;;;;;;;6403203;22;45368;-63
2023/01/24 06:38:01;;;;;;;;;42.75;32.25;;;;;;;;6401827;22;46072;-64
2023/01/24 06:40:26;;;;;;;;;51.00;37.50;;;;;;;;6374579;22;45281;-64
2023/01/24 06:42:52;;;;;;;;;49.50;41.00;;;;;;;;6402380;22;45207;-66
2023/01/24 06:45:17;;;;;;;;;48.25;41.75;;;;;;;;6402448;22;45453;-63
2023/01/24 06:47:43;;;;;;;;;39.50;36.00;;;;;;;;6403332;22;46119;-62
2023/01/24 06:50:15;;;;;;;;;51.75;40.25;;;;;;;;6401344;22;45307;-63
2023/01/24 06:52:41;;;;;;;;;50.25;39.75;;;;;;;;6403311;22;45277;-64
2023/01/24 06:55:06;;;;;;;;;56.00;42.50;;;;;;;;6403292;22;45348;-65
2023/01/24 06:57:31;;;;;;;;;59.00;44.00;;;;;;;;6403036;22;45360;-65
2023/01/24 06:59:56;;;;;;;;;51.75;42.75;;;;;;;;6402837;22;45561;-65
2023/01/24 07:02:21;;;;;;;;;54.50;44.00;;;;;;;;6403068;22;45574;-65
2023/01/24 07:04:47;;;;;;;;;53.00;42.50;;;;;;;;6403621;22;45336;-65
2023/01/24 07:07:12;;;;;;;;;53.75;42.00;;;;;;;;6402938;22;45238;-63
2023/01/24 07:09:37;;;;;;;;;52.50;41.50;;;;;;;;6403041;22;45323;-63
2023/01/24 07:12:03;;;;;;;;;55.75;39.75;;;;;;;;6403062;22;45340;-63
2023/01/24 07:14:28;;;;;;;;;56.25;44.00;;;;;;;;6401985;22;45567;-63
2023/01/24 07:16:55;;;;;;;;;61.50;44.75;;;;;;;;6373881;22;48112;-64
2023/01/24 07:19:25;;;;;;;;;56.75;46.00;;;;;;;;6402855;22;45625;-64
2023/01/24 07:21:53;;;;;;;;;52.25;42.00;;;;;;;;6401244;22;45322;-64
2023/01/24 07:24:20;;;;;;;;;59.00;44.25;;;;;;;;6402780;22;45319;-62
2023/01/24 07:26:45;;;;;;;;;43.25;36.50;;;;;;;;6403295;22;46060;-64
2023/01/24 07:29:11;;;;;;;;;51.25;41.00;;;;;;;;6401958;22;45391;-65
2023/01/24 07:31:36;;;;;;;;;66.50;43.75;;;;;;;;6401592;22;45458;-64
2023/01/24 07:34:01;;;;;;;;;59.75;44.25;;;;;;;;6402907;22;45430;-64
2023/01/24 07:36:27;;;;;;;;;57.50;42.50;;;;;;;;6403286;22;45359;-64
2023/01/24 07:38:53;;;;;;;;;63.75;42.75;;;;;;;;6402567;22;45441;-64
2023/01/24 07:41:18;;;;;;;;;58.00;41.00;;;;;;;;6403157;22;45429;-64
2023/01/24 07:43:43;;;;;;;;;48.25;36.50;;;;;;;;6403709;22;45326;-64
2023/01/24 07:46:08;;;;;;;;;54.25;39.50;;;;;;;;6401675;22;45312;-64
2023/01/24 07:48:34;;;;;;;;;56.25;41.25;;;;;;;;6403042;22;45411;-63
2023/01/24 07:50:59;;;;;;;;;49.50;39.25;;;;;;;;6402504;22;45303;-64
2023/01/24 07:53:25;;;;;;;;;50.50;41.75;;;;;;;;6403521;22;45230;-62
2023/01/24 07:55:50;;;;;;;;;48.25;39.50;;;;;;;;6401899;22;46124;-62
2023/01/24 07:58:15;;;;;;;;;55.50;43.25;;;;;;;;6403412;22;45087;-60
2023/01/24 08:00:41;;;;;;;;;55.50;41.00;;;;;;;;6402398;22;45478;-60
2023/01/24 08:03:08;;;;;;;;;58.00;43.25;;;;;;;;6401390;22;45443;-60
2023/01/24 08:05:35;;;;;;;;;54.25;43.25;;;;;;;;6401702;22;45332;-60
2023/01/24 08:08:01;;;;;;;;;47.75;41.75;;;;;;;;6402042;22;45454;-60
2023/01/24 08:10:26;;;;;;;;;61.00;45.25;;;;;;;;6398512;22;45747;-61
2023/01/24 08:12:52;;;;;;;;;60.75;46.25;;;;;;;;6401317;22;45427;-60
2023/01/24 08:15:17;;;;;;;;;59.75;42.75;;;;;;;;6401856;22;46190;-60
2023/01/24 08:17:42;;;;;;;;;55.00;42.00;;;;;;;;6403383;22;45280;-60
2023/01/24 08:20:08;;;;;;;;;53.00;39.75;;;;;;;;6401599;22;45361;-60
2023/01/24 08:22:33;;;;;;;;;59.00;43.25;;;;;;;;6403406;22;45316;-60
2023/01/24 08:24:58;;;;;;;;;54.75;40.75;;;;;;;;6402538;22;45932;-59
2023/01/24 08:27:23;;;;;;;;;65.00;41.50;;;;;;;;6403567;22;45274;-60
2023/01/24 08:29:49;;;;;;;;;57.00;42.25;;;;;;;;6403335;22;45443;-60
2023/01/24 08:32:14;;;;;;;;;59.25;45.25;;;;;;;;6402599;22;45357;-60
2023/01/24 08:34:39;;;;;;;;;57.50;42.00;;;;;;;;6403177;22;46220;-60
2023/01/24 08:37:04;;;;;;;;;58.50;44.00;;;;;;;;6402712;22;45479;-60
2023/01/24 08:39:29;;;;;;;;;55.50;41.75;;;;;;;;6403074;22;45594;-60
2023/01/24 08:41:55;;;;;;;;;41.00;37.25;;;;;;;;6374050;22;45271;-60
2023/01/24 08:44:20;;;;;;;;;65.25;45.00;;;;;;;;6402714;22;45215;-60
2023/01/24 08:46:45;;;;;;;;;51.50;40.75;;;;;;;;6402949;22;45164;-60
2023/01/24 08:49:10;;;;;;;;;53.25;44.00;;;;;;;;6402772;22;45238;-60
2023/01/24 08:51:36;;;;;;;;;56.25;40.50;;;;;;;;6402798;22;45515;-61
2023/01/24 08:54:01;;;;;;;;;62.50;41.25;;;;;;;;6402274;22;45316;-60
2023/01/24 08:56:26;;;;;;;;;58.75;43.25;;;;;;;;6403398;22;45322;-61
2023/01/24 08:58:51;;;;;;;;;49.50;38.50;;;;;;;;6401848;22;45276;-60
2023/01/24 09:01:17;;;;;;;;;55.75;40.00;;;;;;;;6402944;22;45531;-61
2023/01/24 09:03:42;;;;;;;;;46.00;40.25;;;;;;;;6402637;22;45996;-60
2023/01/24 09:06:07;;;;;;;;;45.75;35.75;;;;;;;;6402466;22;45402;-60
2023/01/24 09:08:33;;;;;;;;;54.25;42.00;;;;;;;;6402797;22;45319;-62
2023/01/24 09:10:58;;;;;;;;;58.00;41.00;;;;;;;;6402692;22;45370;-61
2023/01/24 09:13:24;;;;;;;;;41.50;35.25;;;;;;;;6402585;22;45458;-60
2023/01/24 09:15:49;;;;;;;;;54.00;40.25;;;;;;;;6402648;22;45443;-60
2023/01/24 09:18:14;;;;;;;;;53.75;41.00;;;;;;;;6402502;22;45428;-60
2023/01/24 09:20:40;;;;;;;;;47.75;40.50;;;;;;;;6402482;22;45323;-60
2023/01/24 09:23:12;;;;;;;;;49.00;39.50;;;;;;;;6402117;22;45439;-60
2023/01/24 09:25:38;;;;;;;;;53.50;41.75;;;;;;;;6402220;22;45379;-61
2023/01/24 09:28:03;;;;;;;;;56.00;39.50;;;;;;;;6373419;22;45343;-61
2023/01/24 09:30:29;;;;;;;;;58.00;41.25;;;;;;;;6402572;22;45333;-61
2023/01/24 09:32:54;;;;;;;;;51.00;35.75;;;;;;;;6402037;22;45469;-61
2023/01/24 09:35:19;;;;;;;;;60.75;42.75;;;;;;;;6402409;22;45366;-61
2023/01/24 09:37:44;;;;;;;;;57.25;44.00;;;;;;;;6402342;22;45316;-61
2023/01/24 09:40:30;;;;;;;;;55.75;43.75;;;;;;;;6401861;22;45681;-61
2023/01/24 09:43:06;;;;;;;;;61.50;46.75;;;;;;;;6400615;22;45732;-61
2023/01/24 09:45:44;;;;;;;;;56.00;43.50;;;;;;;;6401909;22;45436;-61
2023/01/24 09:48:14;;;;;;;;;55.25;42.75;;;;;;;;6402066;22;45411;-60
2023/01/24 09:50:39;;;;;;;;;63.75;42.00;;;;;;;;6401806;22;45285;-60
2023/01/24 09:53:04;;;;;;;;;60.00;42.75;;;;;;;;6401984;22;45980;-60
2023/01/24 09:55:40;;;;;;;;;60.00;46.25;;;;;;;;6403758;22;45327;-60
2023/01/24 09:58:26;;;;;;;;;54.00;44.75;;;;;;;;6403072;22;45729;-60
2023/01/24 10:00:52;;;;;;;;;51.25;43.25;;;;;;;;6402375;22;45458;-61
2023/01/24 10:03:19;;;;;;;;;56.00;42.75;;;;;;;;6403335;22;45766;-61
2023/01/24 10:05:52;;;;;;;;;57.75;41.75;;;;;;;;6403916;22;45640;-61
2023/01/24 10:08:20;;;;;;;;;59.25;38.00;;;;;;;;6403890;22;45284;-62
2023/01/24 10:10:52;;;;;;;;;53.50;42.25;;;;;;;;6403719;22;45304;-61
2023/01/24 10:13:36;;;;;;;;;59.00;43.00;;;;;;;;6404118;22;46142;-60
2023/01/24 10:16:01;;;;;;;;;58.00;41.75;;;;;;;;6403046;22;45225;-61
2023/01/24 10:18:35;;;;;;;;;45.75;38.75;;;;;;;;6403603;22;45324;-60
2023/01/24 10:21:10;;;;;;;;;60.75;41.75;;;;;;;;6401826;22;45602;-61
2023/01/24 10:23:41;;;;;;;;;55.00;38.00;;;;;;;;6403608;22;45362;-60
2023/01/24 10:26:09;;;;;;;;;51.75;36.25;;;;;;;;6403027;22;45285;-60
2023/01/24 10:28:38;;;;;;;;;46.50;37.00;;;;;;;;6403770;22;45765;-60
2023/01/24 10:31:38;;;;;;;;;61.50;44.00;;;;;;;;6403013;22;45253;-60
2023/01/24 10:34:10;;;;;;;;;44.50;37.25;;;;;;;;6272818;22;46019;-60
2023/01/24 10:36:43;;;;;;;;;56.25;39.00;;;;;;;;6381607;22;45331;-60
2023/01/24 10:39:09;;;;;;;;;64.50;46.00;;;;;;;;6402255;22;45389;-60
2023/01/24 10:41:35;;;;;;;;;63.75;47.00;;;;;;;;6403575;22;45221;-61
2023/01/24 10:44:20;;;;;;;;;55.00;41.75;;;;;;;;6402782;22;45346;-61
2023/01/24 10:47:01;;;;;;;;;51.00;38.00;;;;;;;;6402313;22;45172;-61
2023/01/24 10:49:28;;;;;;;;;53.75;41.50;;;;;;;;6403580;22;45361;-61
2023/01/24 10:52:12;;;;;;;;;55.25;42.00;;;;;;;;6402477;22;45617;-61
2023/01/24 10:54:45;;;;;;;;;49.50;41.00;;;;;;;;6402616;22;46280;-61
2023/01/24 10:57:30;;;;;;;;;54.00;39.75;;;;;;;;6403040;22;45418;-61
2023/01/24 11:00:00;;;;;;;;;48.75;39.75;;;;;;;;6401927;22;45329;-61
2023/01/24 11:02:25;;;;;;;;;59.50;44.50;;;;;;;;6403593;22;45365;-61
2023/01/24 11:04:52;;;;;;;;;54.25;40.50;;;;;;;;6402870;22;45293;-61
2023/01/24 11:07:29;;;;;;;;;43.50;35.50;;;;;;;;6402806;22;45666;-60
2023/01/24 11:09:54;;;;;;;;;56.00;44.75;;;;;;;;6402940;22;45305;-60
2023/01/24 11:12:20;;;;;;;;;56.75;41.50;;;;;;;;6403590;22;45247;-60
2023/01/24 11:14:47;;;;;;;;;41.50;38.75;;;;;;;;6402802;22;46950;-60
2023/01/24 11:17:29;;;;;;;;;60.25;39.25;;;;;;;;6403064;22;45360;-61
2023/01/24 11:19:58;;;;;;;;;49.75;38.50;;;;;;;;6403250;22;45380;-61
2023/01/24 11:22:24;;;;;;;;;53.75;41.75;;;;;;;;6403036;22;45293;-61
2023/01/24 11:24:50;;;;;;;;;47.75;39.00;;;;;;;;6403231;22;45262;-61
2023/01/24 11:27:17;;;;;;;;;56.25;42.25;;;;;;;;6403260;22;45232;-61
2023/01/24 11:29:42;;;;;;;;;55.00;41.75;;;;;;;;6403448;22;45514;-61
2023/01/24 11:32:21;;;;;;;;;49.00;38.50;;;;;;;;6403175;22;45255;-59
2023/01/24 11:34:52;;;;;;;;;52.00;42.00;;;;;;;;6403709;22;46197;-62
2023/01/24 11:37:28;;;;;;;;;51.50;39.50;;;;;;;;6403369;22;45344;-62
2023/01/24 11:40:18;;;;;;;;;39.50;35.25;;;;;;;;6402442;22;45361;-61
2023/01/24 11:42:49;;;;;;;;;47.50;38.75;;;;;;;;6403427;22;45340;-61
2023/01/24 11:45:17;;;;;;;;;56.50;40.00;;;;;;;;6401337;22;45284;-61
2023/01/24 11:47:56;;;;;;;;;45.50;36.00;;;;;;;;6403555;22;45337;-61
2023/01/24 11:50:24;;;;;;;;;47.00;38.75;;;;;;;;6403160;22;45245;-60
2023/01/24 11:52:58;;;;;;;;;54.00;42.00;;;;;;;;6403444;22;45312;-61
2023/01/24 11:55:26;;;;;;;;;47.25;40.00;;;;;;;;6401407;22;45610;-60
2023/01/24 11:57:51;;;;;;;;;43.75;38.75;;;;;;;;6402889;22;45402;-61
2023/01/24 12:00:19;;;;;;;;;57.75;40.00;;;;;;;;6402832;22;45280;-61
2023/01/24 12:02:56;;;;;;;;;38.75;33.75;;;;;;;;6403502;22;45459;-62
2023/01/24 12:05:30;;;;;;;;;53.50;38.00;;;;;;;;6403628;22;46295;-61
2023/01/24 12:08:01;;;;;;;;;48.75;40.75;;;;;;;;6402770;22;45297;-61
2023/01/24 12:10:45;;;;;;;;;52.50;39.50;;;;;;;;6402883;22;45377;-61
2023/01/24 12:13:18;;;;;;;;;48.00;36.75;;;;;;;;6402389;22;45787;-61
2023/01/24 12:15:57;;;;;;;;;50.75;37.50;;;;;;;;6402113;22;45428;-61
2023/01/24 12:18:28;;;;;;;;;56.75;42.00;;;;;;;;6402022;22;45352;-61
2023/01/24 12:20:56;;;;;;;;;54.75;39.50;;;;;;;;6403015;22;45337;-61
2023/01/24 12:23:27;;;;;;;;;58.00;42.75;;;;;;;;6402795;22;45451;-61
2023/01/24 12:25:53;;;;;;;;;45.00;35.25;;;;;;;;6401934;22;47046;-61
2023/01/24 12:28:27;;;;;;;;;40.50;33.00;;;;;;;;6403152;22;45416;-61
2023/01/24 12:30:56;;;;;;;;;44.75;38.00;;;;;;;;6402753;22;45395;-61
2023/01/24 12:33:34;;;;;;;;;85.00;65.50;;;;;;;;6402899;22;45305;-61
2023/01/24 12:36:04;;;;;;;;;53.75;41.50;;;;;;;;6402056;22;46229;-60
2023/01/24 12:38:35;;;;;;;;;42.75;34.00;;;;;;;;6402879;22;45312;-61
2023/01/24 12:41:21;;;;;;;;;46.50;36.00;;;;;;;;6402207;22;45340;-60
2023/01/24 12:43:55;;;;;;;;;51.75;42.00;;;;;;;;6401114;22;45520;-60
2023/01/24 12:46:21;;;;;;;;;58.00;43.75;;;;;;;;6370232;22;47701;-60
2023/01/24 12:48:48;;;;;;;;;53.00;40.00;;;;;;;;6400065;22;45474;-60
2023/01/24 12:51:13;;;;;;;;;57.00;42.00;;;;;;;;6400334;22;45273;-60
2023/01/24 12:53:41;;;;;;;;;54.25;40.75;;;;;;;;6402401;22;45280;-61
2023/01/24 12:56:25;;;;;;;;;53.25;36.50;;;;;;;;6400711;22;46094;-61
2023/01/24 12:58:52;;;;;;;;;43.25;36.00;;;;;;;;6345658;22;45360;-61
2023/01/24 13:01:26;;;;;;;;;58.00;42.25;;;;;;;;6401032;22;45341;-61
2023/01/24 13:04:07;;;;;;;;;52.50;43.00;;;;;;;;6373314;22;45283;-59
2023/01/24 13:06:38;;;;;;;;;53.75;40.00;;;;;;;;6402892;22;45637;-61
2023/01/24 13:09:12;;;;;;;;;56.00;39.25;;;;;;;;6400144;22;45346;-61
2023/01/24 13:11:44;;;;;;;;;50.00;39.00;;;;;;;;6403096;22;45481;-61
2023/01/24 13:14:18;;;;;;;;;52.50;39.75;;;;;;;;6402208;22;45447;-61
2023/01/24 13:16:55;;;;;;;;;52.00;38.75;;;;;;;;6402479;22;46330;-64
2023/01/24 13:19:29;;;;;;;;;55.25;41.75;;;;;;;;6402828;22;45688;-61
2023/01/24 13:22:05;;;;;;;;;47.50;37.75;;;;;;;;6402251;22;45270;-60
2023/01/24 13:24:48;;;;;;;;;51.50;41.00;;;;;;;;6402268;22;45351;-60
2023/01/24 13:27:39;;;;;;;;;44.00;37.75;;;;;;;;6401243;22;46317;-62
2023/01/24 13:30:04;;;;;;;;;50.50;39.25;;;;;;;;6401446;22;45324;-61
2023/01/24 13:32:30;;;;;;;;;44.00;34.00;;;;;;;;6374744;22;45406;-61
2023/01/24 13:34:57;;;;;;;;;49.75;38.75;;;;;;;;6403707;22;45282;-60
2023/01/24 13:37:27;;;;;;;;;49.00;39.00;;;;;;;;6403667;22;46209;-60
2023/01/24 13:40:04;;;;;;;;;57.75;42.50;;;;;;;;6403370;22;45384;-60
2023/01/24 13:42:34;;;;;;;;;61.25;48.50;;;;;;;;6403733;22;45476;-62
2023/01/24 13:45:19;;;;;;;;;55.75;41.75;;;;;;;;6403174;22;45286;-61
2023/01/24 13:47:44;;;;;;;;;55.00;40.00;;;;;;;;6374770;22;47178;-60
2023/01/24 13:50:11;;;;;;;;;54.00;38.75;;;;;;;;6402520;22;45367;-60
2023/01/24 13:52:37;;;;;;;;;47.50;38.00;;;;;;;;6403941;22;45296;-60
2023/01/24 13:55:04;;;;;;;;;53.50;40.50;;;;;;;;6402935;22;45324;-60
2023/01/24 13:57:35;;;;;;;;;47.75;37.75;;;;;;;;6402018;22;46503;-61
2023/01/24 14:00:09;;;;;;;;;45.50;38.50;;;;;;;;6403221;22;45336;-61
2023/01/24 14:02:58;;;;;;;;;50.25;39.00;;;;;;;;6403324;22;45363;-61
2023/01/24 14:05:30;;;;;;;;;55.50;42.75;;;;;;;;6404139;22;45274;-60
2023/01/24 14:07:56;;;;;;;;;55.25;39.50;;;;;;;;6402519;22;47091;-61
2023/01/24 14:10:34;;;;;;;;;56.00;41.75;;;;;;;;6402646;22;45622;-61
2023/01/24 14:12:59;;;;;;;;;42.75;36.75;;;;;;;;6403241;22;45243;-61
2023/01/24 14:15:29;;;;;;;;;49.50;38.50;;;;;;;;6403953;22;45083;-61
2023/01/24 14:17:54;;;;;;;;;44.00;36.50;;;;;;;;6402646;22;46163;-60
2023/01/24 14:20:19;;;;;;;;;43.00;36.00;;;;;;;;6403253;22;45217;-60
2023/01/24 14:22:45;;;;;;;;;45.50;36.75;;;;;;;;6404135;22;45320;-60
2023/01/24 14:25:31;;;;;;;;;50.25;38.50;;;;;;;;6403102;22;45561;-60
2023/01/24 14:28:00;;;;;;;;;49.00;39.00;;;;;;;;6401742;22;45655;-60
2023/01/24 14:30:26;;;;;;;;;46.25;38.00;;;;;;;;6403780;22;45232;-60
2023/01/24 14:32:52;;;;;;;;;44.50;36.75;;;;;;;;6403261;22;45413;-60
2023/01/24 14:35:24;;;;;;;;;54.50;41.50;;;;;;;;6403707;22;45408;-60
2023/01/24 14:37:51;;;;;;;;;47.50;38.00;;;;;;;;6402957;22;45660;-60
2023/01/24 14:40:16;;;;;;;;;45.25;37.75;;;;;;;;6403268;22;45194;-61
2023/01/24 14:42:41;;;;;;;;;47.75;39.00;;;;;;;;6404006;22;45225;-61
2023/01/24 14:45:12;;;;;;;;;53.25;37.75;;;;;;;;6403334;22;45167;-61
2023/01/24 14:47:38;;;;;;;;;41.50;33.75;;;;;;;;6401842;22;45398;-61
2023/01/24 14:50:18;;;;;;;;;55.25;42.75;;;;;;;;6402559;22;45243;-61
2023/01/24 14:52:43;;;;;;;;;50.00;38.25;;;;;;;;6403804;22;45371;-61
2023/01/24 14:55:17;;;;;;;;;56.25;41.00;;;;;;;;6402899;22;45319;-61
2023/01/24 14:57:43;;;;;;;;;52.75;37.50;;;;;;;;6403067;22;46078;-61
2023/01/24 15:00:11;;;;;;;;;51.00;40.00;;;;;;;;6402081;22;45333;-61
2023/01/24 15:02:37;;;;;;;;;55.25;40.00;;;;;;;;6403269;22;45379;-61
2023/01/24 15:05:12;;;;;;;;;50.50;36.50;;;;;;;;6403176;22;45341;-61
2023/01/24 15:07:44;;;;;;;;;50.00;40.50;;;;;;;;6403591;22;45359;-61
2023/01/24 15:10:13;;;;;;;;;49.75;39.25;;;;;;;;6402563;22;45399;-61
2023/01/24 15:12:38;;;;;;;;;53.00;39.00;;;;;;;;6402947;22;45242;-61
2023/01/24 15:15:04;;;;;;;;;56.50;41.00;;;;;;;;6402383;22;45290;-62
2023/01/24 15:17:30;;;;;;;;;56.50;42.50;;;;;;;;6403590;22;45320;-60
2023/01/24 15:19:58;;;;;;;;;51.75;40.00;;;;;;;;6402976;22;45326;-61
2023/01/24 15:22:24;;;;;;;;;53.00;38.50;;;;;;;;6403252;22;45304;-61
2023/01/24 15:24:51;;;;;;;;;50.25;39.50;;;;;;;;6402915;22;45380;-60
2023/01/24 15:27:21;;;;;;;;;57.75;44.00;;;;;;;;6403453;22;45909;-61
2023/01/24 15:29:48;;;;;;;;;46.75;35.25;;;;;;;;6403052;22;45336;-60
2023/01/24 15:32:28;;;;;;;;;51.75;38.25;;;;;;;;6402817;22;45352;-60
2023/01/24 15:35:12;;;;;;;;;59.75;42.25;;;;;;;;6401012;22;45474;-61
2023/01/24 15:37:37;;;;;;;;;54.00;39.75;;;;;;;;6403254;22;46713;-61
2023/01/24 15:40:02;;;;;;;;;54.50;37.25;;;;;;;;6402531;22;45683;-61
2023/01/24 15:45:16;;;;;;;;;52.75;43.00;;;;;;;;6403030;22;45629;-61
2023/01/24 15:47:44;;;;;;;;;52.25;39.75;;;;;;;;6403211;22;46214;-61
2023/01/24 15:53:11;;;;;;;;;38.00;34.50;;;;;;;;6402589;22;45235;-61
2023/01/24 15:55:37;;;;;;;;;50.25;39.50;;;;;;;;6403018;22;45340;-61
2023/01/24 15:58:02;;;;;;;;;58.00;39.50;;;;;;;;6402604;22;45267;-60
2023/01/24 16:00:27;;;;;;;;;57.75;37.00;;;;;;;;6403254;22;45295;-59
2023/01/24 16:02:53;;;;;;;;;44.25;31.75;;;;;;;;6402695;22;45653;-60
2023/01/24 16:05:20;;;;;;;;;52.50;43.75;;;;;;;;6402883;22;45418;-61
2023/01/24 16:07:45;;;;;;;;;51.50;39.75;;;;;;;;6403062;22;46777;-60
2023/01/24 16:10:14;;;;;;;;;53.00;42.50;;;;;;;;6402635;22;45263;-60
2023/01/24 16:12:39;;;;;;;;;62.00;46.00;;;;;;;;6403101;22;45351;-61
2023/01/24 16:15:05;;;;;;;;;64.00;46.25;;;;;;;;6402506;22;45422;-61
2023/01/24 16:17:30;;;;;;;;;55.25;44.00;;;;;;;;6402983;22;46193;-60
2023/01/24 16:19:55;;;;;;;;;59.00;39.75;;;;;;;;6402975;22;45137;-60
2023/01/24 16:22:20;;;;;;;;;59.50;45.25;;;;;;;;6403852;22;45259;-60
2023/01/24 16:24:45;;;;;;;;;57.75;42.25;;;;;;;;6402921;22;45439;-60
2023/01/24 16:27:14;;;;;;;;;53.50;42.25;;;;;;;;6402730;22;45300;-61
2023/01/24 16:29:40;;;;;;;;;57.25;41.75;;;;;;;;6402996;22;45335;-61
2023/01/24 16:32:21;;;;;;;;;62.25;47.75;;;;;;;;6402191;22;45320;-61
2023/01/24 16:34:47;;;;;;;;;58.25;41.50;;;;;;;;6402703;22;45285;-61
2023/01/24 16:37:12;;;;;;;;;46.50;38.50;;;;;;;;6402388;22;46442;-62
2023/01/24 16:39:37;;;;;;;;;55.25;39.25;;;;;;;;6402651;22;45329;-61
2023/01/24 16:42:03;;;;;;;;;45.00;38.50;;;;;;;;6403177;22;45834;-60
2023/01/24 16:44:28;;;;;;;;;53.25;38.50;;;;;;;;6374226;22;45324;-61
2023/01/24 16:46:53;;;;;;;;;55.50;43.75;;;;;;;;6402690;22;45471;-60
2023/01/24 16:49:18;;;;;;;;;52.25;43.75;;;;;;;;6402850;22;45280;-61
2023/01/24 16:51:44;;;;;;;;;44.50;35.50;;;;;;;;6402959;22;45392;-60
2023/01/24 16:54:10;;;;;;;;;46.25;35.50;;;;;;;;6401050;22;45486;-60
2023/01/24 16:56:35;;;;;;;;;40.00;35.25;;;;;;;;6402456;22;45664;-61
2023/01/24 16:59:00;;;;;;;;;45.75;38.25;;;;;;;;6401655;22;45342;-60
2023/01/24 17:01:25;;;;;;;;;49.25;37.25;;;;;;;;6402288;22;45207;-61
2023/01/24 17:03:51;;;;;;;;;42.75;36.25;;;;;;;;6402559;22;45300;-60
2023/01/24 17:06:16;;;;;;;;;43.25;37.00;;;;;;;;6403432;22;46474;-61
2023/01/24 17:08:42;;;;;;;;;56.75;40.25;;;;;;;;6404058;22;45335;-61
2023/01/24 17:11:08;;;;;;;;;52.25;40.00;;;;;;;;6403988;22;45696;-61
2023/01/24 17:13:34;;;;;;;;;46.75;40.25;;;;;;;;6403058;22;45341;-61
2023/01/24 17:16:06;;;;;;;;;55.50;44.00;;;;;;;;6400147;22;46532;-61
2023/01/24 17:18:32;;;;;;;;;49.00;37.25;;;;;;;;6398385;22;45405;-61
2023/01/24 17:21:00;;;;;;;;;51.75;39.00;;;;;;;;6400922;22;45264;-61
2023/01/24 17:23:26;;;;;;;;;54.50;41.00;;;;;;;;6403058;22;45292;-61
2023/01/24 17:25:51;;;;;;;;;55.50;44.25;;;;;;;;6403092;22;45180;-61
2023/01/24 17:28:16;;;;;;;;;53.75;42.00;;;;;;;;6402512;22;45396;-61
2023/01/24 17:30:47;;;;;;;;;45.50;39.50;;;;;;;;6403934;22;45361;-62
2023/01/24 17:33:12;;;;;;;;;38.25;32.50;;;;;;;;6403540;22;45333;-61
2023/01/24 17:35:38;;;;;;;;;52.50;38.50;;;;;;;;6403903;22;45450;-60
2023/01/24 17:38:04;;;;;;;;;48.25;38.50;;;;;;;;6403622;22;45340;-62
2023/01/24 17:40:29;;;;;;;;;55.25;42.25;;;;;;;;6403844;22;45238;-61
2023/01/24 17:42:54;;;;;;;;;45.75;37.25;;;;;;;;6404157;22;45233;-60
2023/01/24 17:45:20;;;;;;;;;50.75;43.00;;;;;;;;6402693;22;46173;-60
2023/01/24 17:47:45;;;;;;;;;52.75;40.00;;;;;;;;6404130;22;45488;-60
2023/01/24 17:50:13;;;;;;;;;48.00;39.00;;;;;;;;6403538;22;45954;-62
2023/01/24 17:52:38;;;;;;;;;37.75;32.50;;;;;;;;6374730;22;45380;-60
2023/01/24 17:55:03;;;;;;;;;46.50;36.50;;;;;;;;6374348;22;45335;-60
2023/01/24 17:57:28;;;;;;;;;50.75;37.25;;;;;;;;6403487;22;45328;-60
2023/01/24 17:59:54;;;;;;;;;52.50;40.75;;;;;;;;6402485;22;45336;-60
2023/01/24 18:02:19;;;;;;;;;53.50;41.25;;;;;;;;6403316;22;45529;-61
2023/01/24 18:04:44;;;;;;;;;38.75;32.00;;;;;;;;6403983;22;46439;-61
2023/01/24 18:07:10;;;;;;;;;60.50;42.25;;;;;;;;6402930;22;45308;-60
2023/01/24 18:09:35;;;;;;;;;44.25;40.00;;;;;;;;6403100;22;45352;-61
2023/01/24 18:12:00;;;;;;;;;46.75;37.25;;;;;;;;6401977;22;45256;-60
2023/01/24 18:14:26;;;;;;;;;52.00;38.50;;;;;;;;6401137;22;45875;-61
2023/01/24 18:16:51;;;;;;;;;41.75;36.50;;;;;;;;6371988;22;45328;-62
2023/01/24 18:19:16;;;;;;;;;55.75;42.00;;;;;;;;6402864;22;45267;-62
2023/01/24 18:21:41;;;;;;;;;51.00;40.25;;;;;;;;6402493;22;45633;-60
2023/01/24 18:24:09;;;;;;;;;45.25;38.25;;;;;;;;6402247;22;45486;-61
2023/01/24 18:26:37;;;;;;;;;50.25;39.75;;;;;;;;6402363;22;45330;-60
2023/01/24 18:29:02;;;;;;;;;53.50;41.00;;;;;;;;6400853;22;45547;-60
2023/01/24 18:31:27;;;;;;;;;51.00;38.25;;;;;;;;6402513;22;45578;-65
2023/01/24 18:33:59;;;;;;;;;58.00;43.00;;;;;;;;6402463;22;45915;-59
2023/01/24 18:36:25;;;;;;;;;50.00;38.00;;;;;;;;6402609;22;45427;-60
2023/01/24 18:38:50;;;;;;;;;49.50;38.50;;;;;;;;6402023;22;45283;-61
2023/01/24 18:41:16;;;;;;;;;55.25;41.75;;;;;;;;6402265;22;45243;-61
2023/01/24 18:43:41;;;;;;;;;45.00;38.75;;;;;;;;6400469;22;46085;-62
2023/01/24 18:46:07;;;;;;;;;51.25;40.25;;;;;;;;6401374;22;45218;-63
2023/01/24 18:48:36;;;;;;;;;55.25;42.75;;;;;;;;6403477;22;45401;-63
2023/01/24 18:51:09;;;;;;;;;50.75;40.00;;;;;;;;6400927;22;45328;-63
2023/01/24 18:53:34;;;;;;;;;57.25;42.75;;;;;;;;6394992;22;45799;-63
2023/01/24 18:56:00;;;;;;;;;58.00;44.75;;;;;;;;6400783;22;45148;-62
2023/01/24 18:58:26;;;;;;;;;47.00;41.00;;;;;;;;6402373;22;45744;-62
2023/01/24 19:00:51;;;;;;;;;59.75;43.00;;;;;;;;6401250;22;45357;-62
2023/01/24 19:03:16;;;;;;;;;55.25;39.75;;;;;;;;6402219;22;45512;-62
2023/01/24 19:05:42;;;;;;;;;48.50;39.25;;;;;;;;6402107;22;45394;-63
2023/01/24 19:08:07;;;;;;;;;54.25;44.25;;;;;;;;6401207;22;45419;-62
2023/01/24 19:10:33;;;;;;;;;55.00;42.75;;;;;;;;6402073;22;45659;-62
2023/01/24 19:12:58;;;;;;;;;58.50;42.75;;;;;;;;6401763;22;45304;-62
2023/01/24 19:15:23;;;;;;;;;50.50;40.75;;;;;;;;6401794;22;45386;-63
2023/01/24 19:17:49;;;;;;;;;51.75;40.25;;;;;;;;6401791;22;45340;-62
2023/01/24 19:20:16;;;;;;;;;50.25;41.00;;;;;;;;6401187;22;45404;-62
2023/01/24 19:22:41;;;;;;;;;55.25;43.00;;;;;;;;6401853;22;46274;-62
2023/01/24 19:25:08;;;;;;;;;55.75;41.00;;;;;;;;6401523;22;45728;-62
2023/01/24 19:27:33;;;;;;;;;50.00;41.75;;;;;;;;6400960;22;45520;-63
2023/01/24 19:29:58;;;;;;;;;45.00;37.75;;;;;;;;6399211;22;45315;-63